Time;durP1;ratioP1;P1;durP2;ratioP2;P2;SDS_P1;SDS_P2;PMS_P1;PMS_P2;Temp;Humidity;BMP_temperature;BMP_pressure;BME280_temperature;BME280_humidity;BME280_pressure;Samples;Min_cycle;Max_cycle;Signal;HPM_P1;HPM_P2
2022/03/09 00:01:36;;;;;;;;;60.00;42.50;;;;;8.70;44.67;101551.41;5036479;28;47365;-69
2022/03/09 00:04:01;;;;;;;;;64.75;48.00;;;;;8.71;44.58;101544.50;5034537;28;45575;-70
2022/03/09 00:06:27;;;;;;;;;63.50;42.75;;;;;8.71;44.92;101541.91;5029668;28;45953;-71
2022/03/09 00:08:52;;;;;;;;;63.50;45.75;;;;;8.70;45.20;101543.63;5027038;28;45296;-72
2022/03/09 00:11:18;;;;;;;;;64.00;44.75;;;;;8.71;45.20;101542.75;5030127;28;45496;-72
2022/03/09 00:13:43;;;;;;;;;53.50;42.25;;;;;8.72;45.30;101544.47;5024530;28;45541;-73
2022/03/09 00:16:09;;;;;;;;;60.75;41.75;;;;;8.73;45.23;101546.19;5030372;28;45678;-73
2022/03/09 00:18:34;;;;;;;;;56.50;43.25;;;;;8.76;45.05;101551.34;5033338;28;45511;-73
2022/03/09 00:21:00;;;;;;;;;67.50;47.75;;;;;8.76;44.95;101551.34;5018654;28;48234;-73
2022/03/09 00:23:25;;;;;;;;;57.50;42.25;;;;;8.77;44.90;101540.13;5033031;28;45407;-71
2022/03/09 00:25:50;;;;;;;;;62.50;47.00;;;;;8.78;45.14;101540.97;5030300;28;45305;-71
2022/03/09 00:28:16;;;;;;;;;61.75;46.00;;;;;8.73;45.09;101543.59;5038535;28;45471;-69
2022/03/09 00:30:41;;;;;;;;;49.00;28.75;;;;;8.77;44.97;101540.13;5029977;28;45473;-72
2022/03/09 00:33:07;;;;;;;;;63.75;46.75;;;;;8.79;45.16;101550.47;5033355;28;45347;-72
2022/03/09 00:35:32;;;;;;;;;63.75;45.25;;;;;8.79;45.03;101550.47;5030161;28;45320;-72
2022/03/09 00:37:57;;;;;;;;;59.25;45.00;;;;;8.79;45.13;101556.50;5026285;28;45516;-72
2022/03/09 00:40:23;;;;;;;;;58.75;43.75;;;;;8.81;44.97;101556.53;5039924;28;46258;-72
2022/03/09 00:42:48;;;;;;;;;65.25;50.00;;;;;8.78;45.41;101553.94;5026382;28;45427;-74
2022/03/09 00:45:14;;;;;;;;;65.50;46.25;;;;;8.79;44.80;101560.84;5035252;28;45272;-74
2022/03/09 00:47:39;;;;;;;;;64.75;47.00;;;;;8.79;45.12;101564.28;5034327;28;45621;-76
2022/03/09 00:50:06;;;;;;;;;66.75;45.00;;;;;8.75;45.08;101566.91;5038226;28;48445;-76
2022/03/09 00:52:31;;;;;;;;;59.00;45.00;;;;;8.74;45.16;101567.78;5037825;28;45228;-78
2022/03/09 00:54:57;;;;;;;;;64.75;45.50;;;;;8.74;45.21;101558.28;5027167;28;45177;-77
2022/03/09 00:57:22;;;;;;;;;57.25;41.00;;;;;8.76;45.65;101576.41;5037562;28;45161;-76
2022/03/09 00:59:47;;;;;;;;;57.00;43.50;;;;;8.73;45.61;101585.06;5027018;28;46486;-75
2022/03/09 01:02:13;;;;;;;;;64.00;42.50;;;;;8.72;45.09;101583.34;5021717;28;45200;-76
2022/03/09 01:04:38;;;;;;;;;65.25;49.50;;;;;8.73;45.63;101585.06;5031164;28;45466;-75
2022/03/09 01:07:04;;;;;;;;;59.25;45.50;;;;;8.68;45.59;101576.47;5033924;28;45438;-75
2022/03/09 01:09:30;;;;;;;;;60.00;47.25;;;;;8.66;45.46;101580.81;5031789;28;45430;-80
2022/03/09 01:11:57;;;;;;;;;66.25;48.50;;;;;8.64;45.29;101576.50;5040705;28;45343;-79
2022/03/09 01:14:22;;;;;;;;;60.50;48.00;;;;;8.61;45.80;101579.97;5032375;28;45343;-79
2022/03/09 01:16:48;;;;;;;;;67.50;47.75;;;;;8.59;45.96;101583.44;5029602;28;45319;-79
2022/03/09 01:19:13;;;;;;;;;64.00;47.50;;;;;8.52;46.07;101586.06;5033801;28;46045;-79
2022/03/09 01:21:38;;;;;;;;;71.50;48.00;;;;;8.47;46.40;101584.38;5036064;28;45256;-79
2022/03/09 01:24:04;;;;;;;;;64.50;45.25;;;;;8.44;46.53;101586.97;5032203;28;45395;-79
2022/03/09 01:26:29;;;;;;;;;63.00;47.25;;;;;8.41;46.55;101585.28;5038080;28;45256;-79
2022/03/09 01:28:55;;;;;;;;;66.50;48.75;;;;;8.39;46.81;101583.53;5032120;28;45364;-80
2022/03/09 01:31:20;;;;;;;;;61.50;45.25;;;;;8.39;46.76;101586.97;5029395;28;45154;-79
2022/03/09 01:33:46;;;;;;;;;63.25;47.25;;;;;8.39;46.80;101586.97;5041660;28;45434;-79
2022/03/09 01:36:11;;;;;;;;;63.75;48.00;;;;;8.40;46.88;101585.25;5038477;28;45224;-75
2022/03/09 01:38:37;;;;;;;;;69.75;49.25;;;;;8.38;46.76;101584.41;5026931;28;48231;-75
2022/03/09 01:41:02;;;;;;;;;58.00;45.00;;;;;8.39;46.94;101581.81;5023313;28;45269;-75
2022/03/09 01:43:28;;;;;;;;;64.00;46.50;;;;;8.38;46.66;101579.22;5035675;28;45464;-75
2022/03/09 01:45:53;;;;;;;;;65.50;49.00;;;;;8.36;46.93;101568.00;5036142;28;45212;-75
2022/03/09 01:48:19;;;;;;;;;67.50;46.75;;;;;8.38;47.46;101567.13;5042256;28;46428;-75
2022/03/09 01:50:45;;;;;;;;;61.25;49.25;;;;;8.35;47.16;101568.88;5029122;28;45351;-75
2022/03/09 01:53:11;;;;;;;;;66.75;43.50;;;;;8.35;47.46;101571.47;5035014;28;45256;-76
2022/03/09 01:55:37;;;;;;;;;63.50;46.75;;;;;8.36;47.99;101575.78;5035648;28;45487;-76
2022/03/09 01:58:03;;;;;;;;;61.25;48.25;;;;;8.36;48.52;101579.22;5030160;28;45514;-75
2022/03/09 02:00:28;;;;;;;;;56.50;43.25;;;;;8.35;48.34;101577.50;5028895;28;45351;-76
2022/03/09 02:02:54;;;;;;;;;65.25;46.75;;;;;8.35;48.24;101576.66;5034568;28;45340;-76
2022/03/09 02:05:19;;;;;;;;;62.00;45.75;;;;;8.35;48.34;101563.69;5035266;28;45446;-77
2022/03/09 02:10:29;;;;;;;;;64.75;46.25;;;;;8.36;48.46;101561.09;5028826;28;45803;-78
2022/03/09 02:12:55;;;;;;;;;64.25;44.25;;;;;8.36;48.60;101563.69;5035657;28;45439;-78
2022/03/09 02:15:20;;;;;;;;;61.25;44.25;;;;;8.37;48.41;101564.56;5035493;28;45226;-71
2022/03/09 02:17:46;;;;;;;;;58.25;44.50;;;;;8.36;48.41;101557.66;5032634;28;45453;-69
2022/03/09 02:20:11;;;;;;;;;55.75;44.25;;;;;8.36;48.70;101562.84;5036479;28;45275;-69
2022/03/09 02:22:38;;;;;;;;;64.25;48.00;;;;;8.35;48.23;101561.97;5020786;28;45228;-69
2022/03/09 02:25:12;;;;;;;;;66.00;46.25;;;;;8.33;48.53;101557.63;5026612;28;45445;-68
2022/03/09 02:27:38;;;;;;;;;63.50;50.00;;;;;8.29;48.17;101561.13;5027884;28;48071;-75
2022/03/09 02:30:05;;;;;;;;;68.75;50.00;;;;;8.28;48.32;101572.34;5035088;28;45383;-69
2022/03/09 02:32:31;;;;;;;;;67.00;48.75;;;;;8.23;48.19;101568.06;5017047;28;45322;-73
2022/03/09 02:34:56;;;;;;;;;67.25;49.50;;;;;8.20;48.00;101562.88;5036006;28;45470;-72
2022/03/09 02:37:22;;;;;;;;;47.50;37.00;;;;;8.17;48.43;101568.06;5033628;28;46257;-72
2022/03/09 02:39:48;;;;;;;;;60.00;40.25;;;;;8.15;47.99;101567.22;5036426;28;45416;-72
2022/03/09 02:42:14;;;;;;;;;60.50;44.25;;;;;8.14;48.45;101570.66;5031256;28;45482;-70
2022/03/09 02:44:40;;;;;;;;;65.50;48.75;;;;;8.10;48.74;101562.94;5034656;28;45512;-69
2022/03/09 02:47:05;;;;;;;;;61.25;45.25;;;;;8.07;48.55;101566.41;5031566;28;45375;-69
2022/03/09 02:49:31;;;;;;;;;56.25;44.00;;;;;8.06;48.99;101567.25;5037325;28;45355;-68
2022/03/09 02:51:57;;;;;;;;;66.50;47.25;;;;;8.02;48.84;101565.56;5031614;28;45679;-68
2022/03/09 02:54:22;;;;;;;;;67.25;52.75;;;;;7.99;49.40;101567.28;5025778;28;45367;-68
2022/03/09 02:56:48;;;;;;;;;65.75;46.75;;;;;7.99;50.29;101564.69;5029264;28;45360;-68
2022/03/09 02:59:13;;;;;;;;;63.00;47.75;;;;;7.97;50.08;101574.19;5032310;28;45607;-68
2022/03/09 03:01:40;;;;;;;;;51.00;40.50;;;;;7.95;51.62;101579.38;5030208;28;46247;-68
2022/03/09 03:04:05;;;;;;;;;52.25;40.50;;;;;7.97;53.04;101587.97;5025644;28;45383;-68
2022/03/09 03:06:30;;;;;;;;;55.00;41.25;;;;;7.99;53.76;101591.44;5027579;28;46345;-68
2022/03/09 03:08:56;;;;;;;;;49.25;34.75;;;;;8.02;56.29;101596.63;5032212;28;45740;-69
2022/03/09 03:11:21;;;;;;;;;49.75;37.50;;;;;8.06;55.09;101598.31;5030206;28;45498;-71
2022/03/09 03:13:49;;;;;;;;;36.25;26.75;;;;;8.07;55.82;101588.84;5039227;28;45642;-68
2022/03/09 03:16:15;;;;;;;;;50.50;35.25;;;;;8.10;56.11;101591.41;5029297;28;45239;-68
2022/03/09 03:18:40;;;;;;;;;47.50;35.25;;;;;8.11;56.65;101585.34;5039240;28;45902;-68
2022/03/09 03:21:06;;;;;;;;;24.25;22.00;;;;;8.13;59.20;101581.91;5040491;28;45304;-68
2022/03/09 03:23:33;;;;;;;;;29.00;23.50;;;;;8.15;59.53;101581.88;5037310;28;45872;-68
2022/03/09 03:25:59;;;;;;;;;25.75;22.25;;;;;8.18;60.19;101585.31;5034892;28;47114;-68
2022/03/09 03:28:25;;;;;;;;;24.00;22.75;;;;;8.20;60.43;101583.56;5040055;28;45362;-68
2022/03/09 03:30:51;;;;;;;;;23.50;23.50;;;;;8.20;61.36;101575.81;5040108;28;45442;-69
2022/03/09 03:33:19;;;;;;;;;33.75;25.50;;;;;8.24;60.96;101580.13;5025879;28;45720;-68
2022/03/09 03:35:45;;;;;;;;;25.50;17.00;;;;;8.25;62.72;101573.22;5039261;28;48461;-69
2022/03/09 03:38:10;;;;;;;;;25.50;23.75;;;;;8.21;62.94;101566.34;5035857;28;45287;-66
2022/03/09 03:40:36;;;;;;;;;35.25;23.50;;;;;8.25;62.30;101573.22;5020941;28;45435;-69
2022/03/09 03:43:02;;;;;;;;;28.50;26.00;;;;;8.21;62.70;101572.38;5034054;28;45447;-69
2022/03/09 03:45:28;;;;;;;;;32.50;30.50;;;;;8.19;62.44;101576.69;5031209;28;46284;-76
2022/03/09 03:47:53;;;;;;;;;38.25;27.00;;;;;8.18;64.00;101579.28;5039837;28;45267;-71
2022/03/09 03:50:19;;;;;;;;;58.00;43.00;;;;;8.18;61.39;101576.69;5030106;28;45492;-69
2022/03/09 03:52:44;;;;;;;;;55.25;41.25;;;;;8.12;60.36;101572.41;5033708;28;45378;-69
2022/03/09 03:55:10;;;;;;;;;60.50;40.75;;;;;8.09;61.12;101579.34;5029944;28;47089;-69
2022/03/09 03:57:36;;;;;;;;;60.25;39.75;;;;;8.04;61.57;101576.75;5036230;28;45324;-69
2022/03/09 04:00:03;;;;;;;;;49.25;37.25;;;;;8.03;61.98;101584.53;5030374;28;45403;-71
2022/03/09 04:02:28;;;;;;;;;60.50;46.00;;;;;7.97;60.51;101582.81;5035795;28;45438;-71
2022/03/09 04:04:54;;;;;;;;;58.67;46.67;;;;;7.88;59.57;101586.31;5031214;28;46427;-72
2022/03/09 04:07:19;;;;;;;;;73.50;53.00;;;;;7.83;58.59;101582.00;5026862;28;45180;-70
2022/03/09 04:09:45;;;;;;;;;64.25;47.75;;;;;7.78;58.22;101592.34;5038843;28;45336;-72
2022/03/09 04:12:11;;;;;;;;;64.50;50.75;;;;;7.70;57.89;101581.16;5024081;28;45221;-71
2022/03/09 04:14:36;;;;;;;;;76.25;52.25;;;;;7.65;58.14;101582.91;5030040;28;47591;-71
2022/03/09 04:17:02;;;;;;;;;66.75;43.75;;;;;7.63;58.74;101587.22;5038791;28;45238;-68
2022/03/09 04:19:27;;;;;;;;;61.75;46.25;;;;;7.60;58.55;101589.78;5029207;28;45253;-73
2022/03/09 04:21:53;;;;;;;;;53.50;40.75;;;;;7.56;59.70;101588.09;5033249;28;45231;-72
2022/03/09 04:24:18;;;;;;;;;76.50;50.50;;;;;7.52;58.38;101586.38;5030993;28;45216;-72
2022/03/09 04:26:44;;;;;;;;;72.75;53.50;;;;;7.49;58.41;101587.25;5034460;28;45220;-72
2022/03/09 04:29:09;;;;;;;;;71.00;55.50;;;;;7.43;57.60;101584.66;5030008;28;45661;-72
2022/03/09 04:31:34;;;;;;;;;74.25;54.00;;;;;7.39;56.80;101582.06;5024130;28;45483;-73
2022/03/09 04:34:00;;;;;;;;;65.75;50.50;;;;;7.33;56.79;101586.38;5036234;28;47951;-73
2022/03/09 04:36:25;;;;;;;;;72.25;53.25;;;;;7.27;56.94;101582.94;5037241;28;45643;-73
2022/03/09 04:38:51;;;;;;;;;71.00;53.50;;;;;7.25;56.67;101579.50;5035548;28;45399;-70
2022/03/09 04:41:16;;;;;;;;;74.50;51.00;;;;;7.24;57.12;101582.97;5033922;28;45668;-74
2022/03/09 04:43:42;;;;;;;;;73.75;53.50;;;;;7.24;57.18;101582.97;5026966;28;45566;-71
2022/03/09 04:46:07;;;;;;;;;76.33;57.33;;;;;7.23;57.17;101583.81;5026180;28;45393;-71
2022/03/09 04:48:32;;;;;;;;;81.67;57.67;;;;;7.24;57.27;101585.53;5039749;28;45326;-71
2022/03/09 04:50:58;;;;;;;;;72.00;52.00;;;;;7.23;57.25;101591.56;5039213;28;45521;-72
2022/03/09 04:53:23;;;;;;;;;67.25;48.50;;;;;7.20;57.41;101600.16;5030465;28;46125;-70
2022/03/09 04:55:49;;;;;;;;;71.50;52.75;;;;;7.16;57.27;101598.44;5033017;28;45377;-68
2022/03/09 04:58:14;;;;;;;;;68.75;52.00;;;;;7.16;57.41;101602.75;5029090;28;45241;-68
2022/03/09 05:00:40;;;;;;;;;74.25;56.25;;;;;7.13;57.32;101611.38;5026164;28;45220;-68
2022/03/09 05:03:05;;;;;;;;;74.50;58.00;;;;;7.08;57.11;101604.50;5030344;28;45213;-68
2022/03/09 05:05:30;;;;;;;;;75.00;53.50;;;;;7.06;57.05;101606.22;5032858;28;45224;-68
2022/03/09 05:07:56;;;;;;;;;73.25;52.75;;;;;7.01;57.47;101614.84;5028852;28;45236;-69
2022/03/09 05:10:21;;;;;;;;;68.75;52.25;;;;;7.00;57.43;101615.66;5037972;28;45457;-69
2022/03/09 05:12:47;;;;;;;;;73.00;52.75;;;;;7.00;57.90;101614.81;5030071;28;45367;-69
2022/03/09 05:15:12;;;;;;;;;73.25;54.75;;;;;7.01;57.43;101614.84;5032882;28;45367;-68
2022/03/09 05:17:42;;;;;;;;;81.00;56.00;;;;;7.00;57.67;101613.06;5028729;28;45172;-68
2022/03/09 05:20:08;;;;;;;;;79.50;56.00;;;;;6.99;57.80;101620.84;5025710;28;45439;-68
2022/03/09 05:22:33;;;;;;;;;73.50;56.00;;;;;6.95;57.48;101619.09;5029201;28;45424;-68
2022/03/09 05:24:59;;;;;;;;;74.25;56.25;;;;;6.92;58.04;101617.38;5032591;28;45283;-68
2022/03/09 05:27:27;;;;;;;;;73.67;53.33;;;;;6.91;58.31;101626.00;5029761;28;45415;-68
2022/03/09 05:29:53;;;;;;;;;71.50;52.75;;;;;6.88;58.27;101631.16;5025993;28;45249;-68
2022/03/09 05:32:19;;;;;;;;;71.50;53.25;;;;;6.88;58.35;101626.00;5037855;28;47945;-68
2022/03/09 05:34:46;;;;;;;;;77.50;52.50;;;;;6.89;58.51;101634.59;5034340;28;45340;-68
2022/03/09 05:37:12;;;;;;;;;61.25;44.50;;;;;6.87;58.57;101632.03;5030698;28;45356;-68
2022/03/09 05:39:37;;;;;;;;;69.00;49.50;;;;;6.86;58.50;101629.44;5037391;28;45469;-71
2022/03/09 05:42:03;;;;;;;;;64.50;50.75;;;;;6.87;59.30;101631.16;5030158;28;45617;-71
2022/03/09 05:44:28;;;;;;;;;64.25;47.25;;;;;6.88;59.82;101644.09;5033240;28;45221;-65
2022/03/09 05:46:54;;;;;;;;;63.50;46.00;;;;;6.87;59.78;101646.66;5038817;28;45813;-68
2022/03/09 05:49:20;;;;;;;;;54.00;43.75;;;;;6.86;60.30;101645.81;5035151;28;45528;-68
2022/03/09 05:51:45;;;;;;;;;59.25;48.00;;;;;6.87;60.56;101654.41;5026697;28;47778;-68
2022/03/09 05:54:11;;;;;;;;;62.75;45.25;;;;;6.87;61.07;101657.88;5039123;28;45198;-67
2022/03/09 05:56:36;;;;;;;;;64.75;45.25;;;;;6.88;61.77;101659.59;5030478;28;45861;-71
2022/03/09 05:59:02;;;;;;;;;56.25;43.00;;;;;6.91;61.72;101657.00;5040943;28;45748;-68
2022/03/09 06:01:27;;;;;;;;;49.50;39.50;;;;;6.89;61.57;101661.31;5032818;28;45439;-69
2022/03/09 06:03:53;;;;;;;;;59.75;43.00;;;;;6.89;62.02;101661.31;5035581;28;45306;-67
2022/03/09 06:06:18;;;;;;;;;58.75;47.25;;;;;6.92;62.28;101665.63;5031216;28;45232;-67
2022/03/09 06:08:43;;;;;;;;;55.50;39.75;;;;;6.90;61.25;101663.03;5028754;28;45247;-68
2022/03/09 06:11:09;;;;;;;;;60.25;46.25;;;;;6.88;62.53;101669.91;5033008;28;45406;-68
2022/03/09 06:13:34;;;;;;;;;65.00;47.25;;;;;6.87;62.33;101660.44;5034121;28;45382;-68
2022/03/09 06:16:00;;;;;;;;;55.75;42.00;;;;;6.91;62.86;101674.22;5030624;28;45312;-67
2022/03/09 06:18:25;;;;;;;;;62.50;43.75;;;;;6.90;62.32;101682.84;5041509;28;45252;-68
2022/03/09 06:20:50;;;;;;;;;58.00;42.00;;;;;6.89;62.33;101678.53;5032737;28;46299;-68
2022/03/09 06:23:17;;;;;;;;;44.25;39.25;;;;;6.90;62.75;101672.50;5034480;28;45389;-67
2022/03/09 06:25:43;;;;;;;;;59.75;42.50;;;;;6.90;61.71;101667.34;5031093;28;45380;-68
2022/03/09 06:28:08;;;;;;;;;56.50;43.25;;;;;6.90;62.37;101668.19;5028350;28;45268;-68
2022/03/09 06:30:33;;;;;;;;;52.00;42.25;;;;;6.91;63.04;101677.69;5041813;28;45403;-68
2022/03/09 06:32:59;;;;;;;;;60.50;44.00;;;;;6.91;62.60;101666.47;5040151;28;45364;-70
2022/03/09 06:35:24;;;;;;;;;58.00;43.50;;;;;6.91;62.95;101671.66;5032191;28;45158;-66
2022/03/09 06:37:50;;;;;;;;;57.50;44.25;;;;;6.91;63.33;101681.97;5035145;28;45221;-66
2022/03/09 06:40:15;;;;;;;;;60.75;44.50;;;;;6.91;63.38;101681.97;5041358;28;45268;-67
2022/03/09 06:42:41;;;;;;;;;59.25;42.75;;;;;6.90;63.40;101686.28;5028074;28;45321;-66
2022/03/09 06:45:07;;;;;;;;;54.50;42.75;;;;;6.92;62.77;101686.28;5040343;28;45347;-66
2022/03/09 06:47:35;;;;;;;;;56.25;41.50;;;;;6.92;63.43;101696.63;5040745;28;45266;-65
2022/03/09 06:50:01;;;;;;;;;58.50;45.25;;;;;6.95;63.38;101691.47;5033448;28;45568;-69
2022/03/09 06:52:26;;;;;;;;;42.00;33.50;;;;;6.98;63.96;101684.56;5034593;28;45368;-69
2022/03/09 06:54:52;;;;;;;;;55.25;43.25;;;;;7.03;63.99;101691.50;5041216;28;45415;-69
2022/03/09 06:57:17;;;;;;;;;53.75;41.50;;;;;7.08;63.78;101688.06;5040801;28;45323;-69
2022/03/09 06:59:44;;;;;;;;;40.75;39.00;;;;;7.13;63.86;101688.91;5041132;28;45367;-70
2022/03/09 07:02:10;;;;;;;;;52.75;44.00;;;;;7.18;63.54;101694.09;5027578;28;45839;-70
2022/03/09 07:04:35;;;;;;;;;43.00;38.75;;;;;7.25;63.90;101698.44;5032016;28;45443;-70
2022/03/09 07:07:01;;;;;;;;;54.75;43.00;;;;;7.30;63.90;101699.28;5034359;28;45236;-70
2022/03/09 07:09:26;;;;;;;;;63.25;50.50;;;;;7.39;64.28;101698.44;5031730;28;45209;-70
2022/03/09 07:11:52;;;;;;;;;63.75;47.00;;;;;7.42;63.75;101701.03;5034233;28;45380;-70
2022/03/09 07:14:18;;;;;;;;;52.50;43.00;;;;;7.46;64.01;101707.94;5021317;28;45273;-71
2022/03/09 07:16:43;;;;;;;;;47.50;41.25;;;;;7.55;64.43;101720.88;5034982;28;45512;-77
2022/03/09 07:19:09;;;;;;;;;56.50;45.25;;;;;7.61;64.56;101715.72;5032401;28;45342;-72
2022/03/09 07:21:34;;;;;;;;;50.75;39.00;;;;;7.66;64.81;101723.47;5035713;28;45399;-68
2022/03/09 07:23:59;;;;;;;;;58.50;42.75;;;;;7.73;64.67;101728.63;5041066;28;45311;-68
2022/03/09 07:26:25;;;;;;;;;58.00;44.50;;;;;7.79;64.46;101722.59;5027783;28;45357;-70
2022/03/09 07:28:50;;;;;;;;;61.25;45.00;;;;;7.83;64.72;101717.44;5032694;28;45363;-72
2022/03/09 07:31:15;;;;;;;;;45.25;41.50;;;;;7.83;65.19;101722.59;5033543;28;45489;-75
2022/03/09 07:33:41;;;;;;;;;49.75;42.00;;;;;7.83;65.63;101727.78;5026405;28;45660;-74
2022/03/09 07:36:06;;;;;;;;;57.75;44.00;;;;;7.86;65.67;101729.50;5025113;28;45537;-77
2022/03/09 07:38:32;;;;;;;;;58.75;43.75;;;;;7.93;65.01;101736.41;5036983;28;46204;-72
2022/03/09 07:40:58;;;;;;;;;60.25;45.25;;;;;8.03;65.33;101739.84;5037392;28;45658;-69
2022/03/09 07:43:23;;;;;;;;;55.50;42.50;;;;;8.12;65.36;101743.28;5032431;28;45505;-66
2022/03/09 07:45:49;;;;;;;;;62.25;45.25;;;;;8.21;65.47;101738.09;5032232;28;45461;-68
2022/03/09 07:48:14;;;;;;;;;55.75;41.50;;;;;8.33;65.02;101736.34;5038171;28;46991;-75
2022/03/09 07:50:40;;;;;;;;;55.75;39.00;;;;;8.44;65.54;101745.00;5026910;28;45162;-69
2022/03/09 07:53:06;;;;;;;;;42.25;35.50;;;;;8.53;66.59;101740.63;5027351;28;45236;-67
2022/03/09 07:55:31;;;;;;;;;50.00;41.75;;;;;8.59;66.08;101746.66;5026981;28;45229;-69
2022/03/09 07:57:57;;;;;;;;;55.00;40.00;;;;;8.71;65.42;101762.16;5039984;28;46250;-76
2022/03/09 08:00:22;;;;;;;;;55.75;40.50;;;;;8.78;65.83;101756.94;5026762;28;45291;-75
2022/03/09 08:02:48;;;;;;;;;46.75;36.50;;;;;8.82;66.81;101766.47;5025341;28;45229;-72
2022/03/09 08:05:15;;;;;;;;;41.25;38.00;;;;;8.90;68.18;101769.00;5039559;28;45216;-72
2022/03/09 08:07:41;;;;;;;;;44.25;36.75;;;;;8.93;67.94;101763.81;5025188;28;48321;-70
2022/03/09 08:10:09;;;;;;;;;46.00;37.25;;;;;8.96;68.18;101763.78;5039434;28;45772;-76
2022/03/09 08:12:34;;;;;;;;;45.00;35.50;;;;;9.02;68.70;101768.09;5026132;28;45405;-75
2022/03/09 08:15:00;;;;;;;;;46.50;40.00;;;;;9.06;68.49;101765.50;5038791;28;45462;-72
2022/03/09 08:17:25;;;;;;;;;41.25;34.50;;;;;9.14;68.44;101760.25;5034110;28;47070;-72
2022/03/09 08:19:50;;;;;;;;;41.50;35.00;;;;;9.25;68.37;101755.88;5018322;28;45341;-82
2022/03/09 08:22:16;;;;;;;;;50.50;36.00;;;;;9.40;68.27;101763.53;5027616;28;45177;-73
2022/03/09 08:24:41;;;;;;;;;38.50;33.25;;;;;9.44;69.03;101765.28;5026377;28;45178;-76
2022/03/09 08:27:06;;;;;;;;;41.25;32.25;;;;;9.54;68.58;101760.00;5039768;28;45222;-73
2022/03/09 08:29:32;;;;;;;;;39.25;35.75;;;;;9.62;67.86;101766.03;5038672;28;45337;-77
2022/03/09 08:31:57;;;;;;;;;46.00;37.00;;;;;9.71;67.98;101755.56;5028031;28;45346;-74
2022/03/09 08:34:23;;;;;;;;;53.50;37.25;;;;;9.83;68.12;101765.88;5026086;28;45557;-73
2022/03/09 08:36:48;;;;;;;;;45.25;34.25;;;;;9.91;67.48;101774.44;5031955;28;46594;-76
2022/03/09 08:39:14;;;;;;;;;37.00;29.00;;;;;9.99;68.40;101767.44;5032704;28;45851;-75
2022/03/09 08:41:39;;;;;;;;;30.50;27.25;;;;;10.00;68.68;101779.53;5033933;28;45419;-80
2022/03/09 08:44:05;;;;;;;;;32.00;23.50;;;;;10.01;69.60;101780.41;5018248;28;45376;-72
2022/03/09 08:46:30;;;;;;;;;26.25;19.75;;;;;9.98;69.75;101781.28;5053131;28;47010;-76
2022/03/09 08:48:56;;;;;;;;;23.25;16.75;;;;;9.94;69.38;101779.59;5027034;28;45470;-79
2022/03/09 08:51:22;;;;;;;;;23.25;18.25;;;;;9.92;70.36;101778.75;5031479;28;45387;-71
2022/03/09 08:53:49;;;;;;;;;26.00;22.00;;;;;9.91;70.83;101770.97;5032209;28;45363;-68
2022/03/09 08:56:14;;;;;;;;;22.00;18.50;;;;;9.92;70.59;101773.56;5025976;28;45514;-68
2022/03/09 08:58:40;;;;;;;;;34.75;26.25;;;;;9.98;70.36;101785.63;5026462;28;45277;-66
2022/03/09 09:01:06;;;;;;;;;23.00;19.00;;;;;10.01;71.72;101767.41;5033056;28;45254;-66
2022/03/09 09:03:31;;;;;;;;;33.25;22.50;;;;;10.04;70.31;101776.06;5031282;28;45219;-67
2022/03/09 09:05:56;;;;;;;;;27.50;23.25;;;;;9.97;70.58;101779.56;5039173;28;46486;-65
2022/03/09 09:08:22;;;;;;;;;26.00;23.00;;;;;9.91;70.05;101781.38;5037676;28;45759;-68
2022/03/09 09:10:48;;;;;;;;;22.75;20.25;;;;;9.83;70.47;101775.38;5038103;28;45363;-67
2022/03/09 09:13:14;;;;;;;;;28.25;25.50;;;;;9.72;70.92;101770.25;5027713;28;45434;-69
2022/03/09 09:15:39;;;;;;;;;30.50;25.75;;;;;9.67;70.39;101764.25;5032212;28;45379;-65
2022/03/09 09:18:06;;;;;;;;;31.75;23.00;;;;;9.70;72.08;101777.19;5032576;28;45375;-71
2022/03/09 09:20:33;;;;;;;;;32.00;26.75;;;;;9.69;72.65;101772.88;5026482;28;45322;-67
2022/03/09 09:22:58;;;;;;;;;24.75;22.00;;;;;9.85;72.49;101774.50;5025817;28;45420;-67
2022/03/09 09:25:25;;;;;;;;;40.75;30.50;;;;;10.16;71.52;101780.28;5026056;28;45514;-68
2022/03/09 09:27:52;;;;;;;;;30.50;27.75;;;;;10.50;70.97;101770.47;5032195;28;45760;-68
2022/03/09 09:30:18;;;;;;;;;34.25;28.25;;;;;10.86;70.48;101776.13;5030799;28;45312;-68
2022/03/09 09:32:44;;;;;;;;;32.00;26.50;;;;;11.13;69.70;101765.34;5029060;28;45713;-67
2022/03/09 09:35:12;;;;;;;;;32.75;25.50;;;;;11.33;69.30;101761.63;5034242;28;46492;-68
2022/03/09 09:37:38;;;;;;;;;35.50;32.75;;;;;11.55;68.89;101756.06;5035700;28;45371;-68
2022/03/09 09:40:09;;;;;;;;;25.00;19.00;;;;;11.77;67.99;101759.19;5041608;28;45534;-71
2022/03/09 09:42:35;;;;;;;;;36.25;32.00;;;;;11.94;67.36;101760.72;5029206;28;45341;-70
2022/03/09 09:45:01;;;;;;;;;28.50;25.00;;;;;12.04;66.80;101757.06;5028832;28;45324;-71
2022/03/09 09:47:28;;;;;;;;;39.25;28.50;;;;;12.04;66.46;101750.13;5040456;28;45346;-64
2022/03/09 09:49:56;;;;;;;;;36.50;31.75;;;;;12.04;65.90;101751.88;5035359;28;45303;-61
2022/03/09 09:52:24;;;;;;;;;34.00;27.50;;;;;11.91;66.03;101747.75;5035460;28;45554;-63
2022/03/09 09:54:52;;;;;;;;;33.75;26.50;;;;;11.84;66.18;101744.38;5029862;28;46281;-64
2022/03/09 09:57:17;;;;;;;;;29.00;25.00;;;;;11.72;66.50;101742.81;5028858;28;45395;-63
2022/03/09 09:59:44;;;;;;;;;28.75;22.25;;;;;11.76;66.32;101743.59;5034251;28;45253;-63
2022/03/09 10:02:09;;;;;;;;;27.50;22.25;;;;;11.88;66.63;101749.50;5035517;28;45384;-63
2022/03/09 10:04:35;;;;;;;;;15.25;13.75;;;;;11.97;66.43;101753.69;5030475;28;45502;-63
2022/03/09 10:07:00;;;;;;;;;19.75;17.25;;;;;12.13;66.41;101751.69;5028739;28;45174;-63
2022/03/09 10:09:36;;;;;;;;;17.25;16.00;;;;;12.29;66.00;101754.88;5034114;28;45356;-64
2022/03/09 10:12:04;;;;;;;;;25.75;17.75;;;;;12.32;65.67;101745.25;5036828;28;45300;-64
2022/03/09 10:14:48;;;;;;;;;22.25;19.25;;;;;12.49;65.60;101747.56;5031009;28;48643;-63
2022/03/09 10:17:16;;;;;;;;;17.00;16.75;;;;;12.70;65.88;101751.50;5041947;28;45210;-66
2022/03/09 10:19:45;;;;;;;;;21.25;16.75;;;;;13.44;65.37;101746.44;5029392;28;45371;-70
2022/03/09 10:22:24;;;;;;;;;21.75;19.00;;;;;13.77;63.36;101752.59;5035553;28;45553;-63
2022/03/09 10:24:50;;;;;;;;;22.00;22.00;;;;;13.85;62.75;101748.06;5035019;28;45399;-64
2022/03/09 10:27:43;;;;;;;;;19.50;15.00;;;;;14.03;62.29;101748.50;5030505;28;45398;-63
2022/03/09 10:30:13;;;;;;;;;19.00;17.00;;;;;14.25;62.37;101740.03;5028594;28;45373;-63
2022/03/09 10:32:58;;;;;;;;;19.75;15.75;;;;;15.30;60.21;101740.53;5028785;28;45327;-62
2022/03/09 10:35:29;;;;;;;;;18.75;17.00;;;;;15.66;59.26;101736.78;5030782;28;45647;-62
2022/03/09 10:37:54;;;;;;;;;22.50;15.50;;;;;15.70;57.82;101730.53;5028094;28;45479;-63
2022/03/09 10:40:21;;;;;;;;;21.50;18.50;;;;;16.34;60.03;101732.72;5040560;28;45481;-62
2022/03/09 10:42:48;;;;;;;;;22.75;16.75;;;;;17.66;52.22;101729.41;5028187;28;45242;-63
2022/03/09 10:45:17;;;;;;;;;18.00;15.75;;;;;17.43;52.68;101725.09;5033145;28;45292;-63
2022/03/09 10:47:47;;;;;;;;;31.75;30.00;;;;;17.06;53.60;101725.69;5036481;28;45295;-64
2022/03/09 10:50:19;;;;;;;;;19.50;14.75;;;;;17.46;52.81;101727.59;5047541;28;45359;-66
2022/03/09 10:52:53;;;;;;;;;18.75;18.25;;;;;18.05;52.25;101739.22;5033918;28;45275;-66
2022/03/09 10:55:24;;;;;;;;;27.75;21.50;;;;;17.73;52.27;101724.78;5032813;28;45348;-66
2022/03/09 10:57:51;;;;;;;;;23.50;19.75;;;;;17.39;51.40;101730.50;5027543;28;45259;-65
2022/03/09 11:00:47;;;;;;;;;20.75;19.75;;;;;17.78;50.33;101728.06;5041129;28;45169;-65
2022/03/09 11:03:14;;;;;;;;;18.00;17.75;;;;;17.40;51.02;101733.06;5031100;28;45222;-67
2022/03/09 11:06:03;;;;;;;;;20.25;17.50;;;;;16.93;50.60;101727.91;5027184;28;45765;-66
2022/03/09 11:08:35;;;;;;;;;23.00;19.00;;;;;17.14;50.67;101730.63;5039464;28;45510;-66
2022/03/09 11:11:02;;;;;;;;;15.75;15.75;;;;;17.37;51.12;101732.34;5028452;28;45325;-67
2022/03/09 11:13:31;;;;;;;;;29.25;28.00;;;;;17.14;52.37;101730.63;5026135;28;45457;-66
2022/03/09 11:15:57;;;;;;;;;19.50;16.75;;;;;16.70;51.02;101730.56;5032193;28;46148;-66